Terminal Aerodrome Forecast
Issued by NWS Los Angeles, CA

Home | Current Version | Previous Version | Text Only | Print | Product List | Glossary On
Versions: 1 2 3 4 5 6 7 8 9 10 11 12 13 14 15 16 17 18 19
000
FTUS46 KLOX 240608 CCA
TAFSMX
TAF COR
KSMX 240608Z 2406/2506 VRB03KT 5SM BR SCT006 OVC012
     FM240900 VRB03KT 2SM BR OVC004
     FM241600 VRB03KT P6SM OVC008
     FM241800 30007KT P6SM SCT012
     FM242000 30013KT P6SM SKC
     FM250200 30006KT P6SM OVC006=

USA.gov is the U.S. government's official web portal to all federal, state and local government web resources and services.